Time;durP1;ratioP1;P1;durP2;ratioP2;P2;SDS_P1;SDS_P2;PMS_P1;PMS_P2;Temp;Humidity;BMP_temperature;BMP_pressure;BME280_temperature;BME280_humidity;BME280_pressure;Samples;Min_cycle;Max_cycle;Signal;HPM_P1;HPM_P2
2022/11/12 00:00:08;;;;;;;4.72;2.42;;;;;;;;;;5095223;28;20490;-63
2022/11/12 00:02:34;;;;;;;4.40;2.92;;;;;;;;;;5089791;28;20031;-62
2022/11/12 00:05:01;;;;;;;3.80;1.88;;;;;;;;;;5108217;28;20028;-62
2022/11/12 00:07:27;;;;;;;2.97;2.03;;;;;;;;;;5110160;28;20038;-63
2022/11/12 00:09:54;;;;;;;2.80;1.85;;;;;;;;;;5090628;28;20070;-62
2022/11/12 00:12:21;;;;;;;4.03;2.53;;;;;;;;;;5094763;28;20028;-63
2022/11/12 00:14:47;;;;;;;5.30;2.22;;;;;;;;;;5095126;28;20039;-63
2022/11/12 00:17:14;;;;;;;3.90;2.33;;;;;;;;;;5094868;28;20024;-63
2022/11/12 00:19:41;;;;;;;2.37;1.73;;;;;;;;;;5111071;28;20084;-63
2022/11/12 00:22:07;;;;;;;5.47;2.27;;;;;;;;;;5115321;28;20023;-62
2022/11/12 00:24:34;;;;;;;3.97;1.80;;;;;;;;;;5093609;28;20028;-62
2022/11/12 00:27:01;;;;;;;2.23;1.70;;;;;;;;;;5089032;28;20501;-63
2022/11/12 00:29:27;;;;;;;4.00;2.20;;;;;;;;;;5089615;28;20016;-62
2022/11/12 00:31:54;;;;;;;3.20;2.00;;;;;;;;;;5089270;28;20382;-62
2022/11/12 00:34:20;;;;;;;3.20;1.93;;;;;;;;;;5106429;28;20500;-62
2022/11/12 00:36:47;;;;;;;4.43;2.23;;;;;;;;;;5114572;28;20153;-64
2022/11/12 00:39:14;;;;;;;2.57;1.67;;;;;;;;;;5114920;28;20034;-62
2022/11/12 00:41:41;;;;;;;4.30;2.00;;;;;;;;;;5115146;28;20491;-63
2022/11/12 00:44:07;;;;;;;3.13;1.93;;;;;;;;;;5103505;28;20028;-63
2022/11/12 00:46:34;;;;;;;3.97;2.20;;;;;;;;;;5090313;28;20413;-62
2022/11/12 00:49:00;;;;;;;2.90;1.80;;;;;;;;;;5088953;28;20379;-62
2022/11/12 00:51:27;;;;;;;2.60;1.67;;;;;;;;;;5088904;28;20101;-62
2022/11/12 00:53:54;;;;;;;2.63;1.73;;;;;;;;;;5096936;28;20040;-63
2022/11/12 00:56:20;;;;;;;7.00;2.43;;;;;;;;;;5110442;28;20035;-63
2022/11/12 00:58:47;;;;;;;7.17;2.20;;;;;;;;;;5102862;28;20138;-63
2022/11/12 01:01:15;;;;;;;3.90;2.10;;;;;;;;;;5114688;28;20024;-62
2022/11/12 01:03:42;;;;;;;15.20;2.40;;;;;;;;;;5114656;28;20015;-63
2022/11/12 01:06:13;;;;;;;5.53;2.63;;;;;;;;;;5114471;28;20558;-62
2022/11/12 01:08:40;;;;;;;3.13;2.23;;;;;;;;;;5103551;28;20028;-64
2022/11/12 01:11:08;;;;;;;2.33;1.70;;;;;;;;;;5088074;28;20048;-62
2022/11/12 01:13:35;;;;;;;5.73;2.80;;;;;;;;;;5095571;28;20035;-62
2022/11/12 01:16:09;;;;;;;2.07;1.70;;;;;;;;;;5109043;28;20046;-62
2022/11/12 01:18:35;;;;;;;6.68;2.55;;;;;;;;;;5111784;28;20042;-62
2022/11/12 01:21:06;;;;;;;19.20;2.23;;;;;;;;;;5114233;28;20020;-63
2022/11/12 01:23:33;;;;;;;3.57;2.20;;;;;;;;;;5107716;28;20026;-62
2022/11/12 01:26:04;;;;;;;5.50;1.80;;;;;;;;;;5093181;28;20060;-62
2022/11/12 01:28:30;;;;;;;3.43;2.20;;;;;;;;;;5093573;28;20027;-63
2022/11/12 01:30:57;;;;;;;3.20;1.97;;;;;;;;;;5090384;28;20042;-62
2022/11/12 01:33:24;;;;;;;8.37;2.43;;;;;;;;;;5091766;28;20478;-62
2022/11/12 01:35:50;;;;;;;3.70;2.50;;;;;;;;;;5108567;28;20027;-62
2022/11/12 01:38:17;;;;;;;4.13;2.07;;;;;;;;;;5107575;28;20351;-62
2022/11/12 01:40:44;;;;;;;4.10;2.40;;;;;;;;;;5111045;28;20023;-62
2022/11/12 01:43:14;;;;;;;4.10;2.23;;;;;;;;;;5111253;28;20023;-62
2022/11/12 01:45:43;;;;;;;9.67;2.33;;;;;;;;;;5092978;28;20031;-63
2022/11/12 01:48:21;;;;;;;4.73;2.73;;;;;;;;;;5093351;28;20421;-63
2022/11/12 01:50:47;;;;;;;4.47;2.27;;;;;;;;;;5093346;28;20057;-62
2022/11/12 01:53:14;;;;;;;5.13;1.97;;;;;;;;;;5091796;28;20040;-62
2022/11/12 01:55:41;;;;;;;4.57;2.23;;;;;;;;;;5108082;28;20067;-62
2022/11/12 01:58:12;;;;;;;4.23;2.20;;;;;;;;;;5107972;28;20039;-62
2022/11/12 02:00:39;;;;;;;5.77;2.70;;;;;;;;;;5108112;28;20019;-62
2022/11/12 02:03:10;;;;;;;3.67;2.43;;;;;;;;;;5109055;28;20019;-62
2022/11/12 02:05:37;;;;;;;18.03;2.20;;;;;;;;;;5092963;28;20032;-62
2022/11/12 02:08:06;;;;;;;2.20;1.67;;;;;;;;;;5093085;28;20091;-62
2022/11/12 02:10:34;;;;;;;6.70;2.53;;;;;;;;;;5093035;28;20475;-62
2022/11/12 02:15:46;;;;;;;2.93;2.10;;;;;;;;;;5069459;28;20082;-62
2022/11/12 02:18:13;;;;;;;6.17;2.50;;;;;;;;;;5067309;28;20071;-62
2022/11/12 02:20:39;;;;;;;7.23;3.07;;;;;;;;;;5066919;28;20033;-62
2022/11/12 02:23:07;;;;;;;3.57;2.40;;;;;;;;;;5068116;28;20031;-62
2022/11/12 02:25:34;;;;;;;3.13;2.37;;;;;;;;;;5109727;28;20090;-62
2022/11/12 02:28:01;;;;;;;16.00;3.53;;;;;;;;;;5113055;28;20378;-63
2022/11/12 02:30:32;;;;;;;3.97;2.73;;;;;;;;;;5113024;28;20030;-62
2022/11/12 02:32:59;;;;;;;4.43;2.50;;;;;;;;;;5112690;28;20508;-61
2022/11/12 02:35:25;;;;;;;5.07;2.70;;;;;;;;;;5093113;28;20538;-63
2022/11/12 02:37:52;;;;;;;4.50;2.60;;;;;;;;;;5088771;28;20103;-61
2022/11/12 02:40:19;;;;;;;4.73;2.40;;;;;;;;;;5085668;28;20020;-61
2022/11/12 02:42:45;;;;;;;2.87;2.07;;;;;;;;;;5086178;28;20054;-62
2022/11/12 02:45:12;;;;;;;6.40;3.37;;;;;;;;;;5087172;28;20024;-62
2022/11/12 02:47:39;;;;;;;8.30;3.07;;;;;;;;;;5088587;28;20457;-62
2022/11/12 02:50:05;;;;;;;19.30;3.30;;;;;;;;;;5091048;28;20020;-62
2022/11/12 02:52:33;;;;;;;5.33;2.20;;;;;;;;;;5091382;28;20083;-62
2022/11/12 02:55:00;;;;;;;11.77;3.63;;;;;;;;;;5092166;28;20068;-62
2022/11/12 02:57:28;;;;;;;4.70;2.50;;;;;;;;;;5091027;28;20031;-64
2022/11/12 02:59:55;;;;;;;4.00;2.37;;;;;;;;;;5087395;28;20111;-61
2022/11/12 03:02:21;;;;;;;4.10;2.63;;;;;;;;;;5083125;28;20036;-64
2022/11/12 03:04:48;;;;;;;6.07;2.73;;;;;;;;;;5094580;28;20032;-61
2022/11/12 03:07:15;;;;;;;2.83;2.00;;;;;;;;;;5084572;28;20121;-62
2022/11/12 03:09:42;;;;;;;5.20;2.37;;;;;;;;;;5079628;28;20062;-62
2022/11/12 03:12:08;;;;;;;6.87;2.03;;;;;;;;;;5084249;28;20483;-62
2022/11/12 03:14:35;;;;;;;4.47;3.03;;;;;;;;;;5090700;28;20059;-62
2022/11/12 03:17:01;;;;;;;3.73;2.33;;;;;;;;;;5081083;28;20414;-62
2022/11/12 03:19:28;;;;;;;2.17;1.57;;;;;;;;;;5087077;28;20513;-62
2022/11/12 03:21:55;;;;;;;2.73;1.70;;;;;;;;;;5087953;28;20024;-61
2022/11/12 03:24:21;;;;;;;3.30;2.53;;;;;;;;;;5085270;28;20080;-62
2022/11/12 03:26:48;;;;;;;3.03;1.73;;;;;;;;;;5082624;28;20096;-62
2022/11/12 03:29:15;;;;;;;2.17;1.70;;;;;;;;;;5073947;28;20020;-61
2022/11/12 03:31:41;;;;;;;6.50;2.40;;;;;;;;;;5078714;28;20012;-61
2022/11/12 03:34:08;;;;;;;3.33;2.13;;;;;;;;;;5088236;28;20042;-61
2022/11/12 03:36:35;;;;;;;3.10;1.90;;;;;;;;;;5084758;28;20020;-61
2022/11/12 03:39:01;;;;;;;1.63;1.27;;;;;;;;;;5077567;28;20047;-61
2022/11/12 03:41:28;;;;;;;3.00;1.90;;;;;;;;;;5082379;28;20210;-62
2022/11/12 03:43:55;;;;;;;6.90;2.50;;;;;;;;;;5084593;28;20021;-62
2022/11/12 03:46:21;;;;;;;2.80;2.37;;;;;;;;;;5089231;28;20471;-62
2022/11/12 03:48:48;;;;;;;12.73;7.67;;;;;;;;;;5073942;28;20103;-62
2022/11/12 03:51:15;;;;;;;7.87;3.57;;;;;;;;;;5078098;28;20479;-62
2022/11/12 03:53:42;;;;;;;8.73;4.70;;;;;;;;;;5070428;28;20040;-62
2022/11/12 03:56:08;;;;;;;19.13;4.30;;;;;;;;;;5094030;28;20473;-62
2022/11/12 03:58:35;;;;;;;12.07;7.60;;;;;;;;;;5074697;28;20479;-62
2022/11/12 04:01:02;;;;;;;15.60;7.83;;;;;;;;;;5087160;28;20016;-62
2022/11/12 04:03:28;;;;;;;11.70;6.50;;;;;;;;;;5084122;28;20020;-62
2022/11/12 04:08:40;;;;;;;10.43;6.05;;;;;;;;;;5089277;28;20544;-61
2022/11/12 04:11:11;;;;;;;4.33;3.43;;;;;;;;;;5080814;28;20470;-61
2022/11/12 04:13:38;;;;;;;4.47;2.80;;;;;;;;;;5080392;28;20114;-62
2022/11/12 04:21:55;;;;;;;6.07;3.77;;;;;;;;;;5083008;28;20048;-62
2022/11/12 04:27:19;;;;;;;1.73;1.53;;;;;;;;;;5090732;28;20432;-61
2022/11/12 04:32:32;;;;;;;3.70;2.60;;;;;;;;;;5080258;28;20362;-61
2022/11/12 04:34:59;;;;;;;3.03;2.50;;;;;;;;;;5104104;28;20028;-61
2022/11/12 04:37:27;;;;;;;5.07;3.10;;;;;;;;;;5079991;28;20070;-61
2022/11/12 04:39:54;;;;;;;2.93;2.43;;;;;;;;;;5083065;28;20024;-62
2022/11/12 04:45:08;;;;;;;2.97;2.20;;;;;;;;;;5039406;28;20032;-61
2022/11/12 04:47:36;;;;;;;5.67;3.10;;;;;;;;;;5094577;28;20028;-61
2022/11/12 04:50:04;;;;;;;2.40;2.07;;;;;;;;;;5093859;28;20422;-61
2022/11/12 04:52:31;;;;;;;3.50;2.53;;;;;;;;;;5088561;28;20028;-62
2022/11/12 04:54:58;;;;;;;5.07;2.90;;;;;;;;;;5094870;28;20149;-62
2022/11/12 04:57:25;;;;;;;2.87;1.87;;;;;;;;;;5088903;28;20052;-61
2022/11/12 04:59:52;;;;;;;3.70;2.43;;;;;;;;;;5088740;28;20028;-61
2022/11/12 05:02:19;;;;;;;3.70;1.70;;;;;;;;;;5094925;28;20028;-61
2022/11/12 05:04:45;;;;;;;4.07;2.97;;;;;;;;;;5088358;28;20024;-61
2022/11/12 05:07:13;;;;;;;3.40;2.37;;;;;;;;;;5094110;28;20024;-61
2022/11/12 05:09:39;;;;;;;6.00;2.10;;;;;;;;;;5082930;28;20028;-61
2022/11/12 05:12:06;;;;;;;3.67;2.30;;;;;;;;;;5092813;28;20028;-61
2022/11/12 05:14:33;;;;;;;1.10;1.00;;;;;;;;;;5089684;28;20135;-61
2022/11/12 05:17:00;;;;;;;2.53;1.77;;;;;;;;;;5073521;28;20065;-62
2022/11/12 05:19:26;;;;;;;3.70;2.37;;;;;;;;;;5060845;28;20028;-62
2022/11/12 05:22:05;;;;;;;3.03;2.10;;;;;;;;;;5083987;28;20032;-61
2022/11/12 05:24:35;;;;;;;2.97;2.13;;;;;;;;;;5091725;28;20140;-62
2022/11/12 05:27:02;;;;;;;1.70;1.40;;;;;;;;;;5079358;28;20016;-61
2022/11/12 05:29:29;;;;;;;7.37;2.87;;;;;;;;;;5083803;28;20020;-62
2022/11/12 05:31:56;;;;;;;3.53;2.37;;;;;;;;;;5089118;28;20024;-61
2022/11/12 05:34:23;;;;;;;3.97;2.40;;;;;;;;;;5096509;28;20039;-61
2022/11/12 05:36:49;;;;;;;4.03;2.30;;;;;;;;;;5089968;28;20635;-61
2022/11/12 05:39:16;;;;;;;2.47;1.77;;;;;;;;;;5080308;28;20017;-62
2022/11/12 05:41:43;;;;;;;2.13;1.50;;;;;;;;;;5079969;28;20028;-61
2022/11/12 05:44:09;;;;;;;3.43;2.47;;;;;;;;;;5092795;28;20085;-61
2022/11/12 05:46:36;;;;;;;2.67;1.77;;;;;;;;;;5073670;28;20028;-62
2022/11/12 05:49:03;;;;;;;1.13;1.03;;;;;;;;;;5092297;28;20020;-61
2022/11/12 05:51:29;;;;;;;1.80;1.23;;;;;;;;;;5093209;28;20069;-61
2022/11/12 05:53:56;;;;;;;4.43;2.33;;;;;;;;;;5098384;28;20382;-61
2022/11/12 05:56:23;;;;;;;2.40;1.73;;;;;;;;;;5076189;28;20024;-61
2022/11/12 05:58:49;;;;;;;5.53;2.90;;;;;;;;;;5085956;28;20020;-61
2022/11/12 06:01:16;;;;;;;1.70;1.40;;;;;;;;;;5075565;28;20055;-60
2022/11/12 06:03:43;;;;;;;2.27;1.57;;;;;;;;;;5092406;28;20024;-62
2022/11/12 06:06:09;;;;;;;3.97;2.07;;;;;;;;;;5071974;28;20111;-61
2022/11/12 06:08:36;;;;;;;2.60;1.90;;;;;;;;;;5086317;28;20020;-61
2022/11/12 06:11:03;;;;;;;3.87;1.77;;;;;;;;;;5078802;28;20073;-61
2022/11/12 06:13:29;;;;;;;3.23;2.30;;;;;;;;;;5097297;28;20081;-61
2022/11/12 06:15:56;;;;;;;3.20;2.43;;;;;;;;;;5079341;28;20029;-61
2022/11/12 06:18:23;;;;;;;3.53;1.67;;;;;;;;;;5089235;28;20031;-61
2022/11/12 06:23:35;;;;;;;;;;;;;;;;;;5090980;28;20065;-61
2022/11/12 06:26:02;;;;;;;5.17;2.60;;;;;;;;;;5073194;28;19909;-61
2022/11/12 06:28:28;;;;;;;5.27;3.00;;;;;;;;;;5084904;28;20139;-61
2022/11/12 06:30:55;;;;;;;4.13;2.37;;;;;;;;;;5089700;28;20024;-61
2022/11/12 06:33:22;;;;;;;10.87;2.10;;;;;;;;;;5092589;28;20032;-61
2022/11/12 06:35:55;;;;;;;3.13;2.10;;;;;;;;;;5079451;28;20058;-61
2022/11/12 06:38:22;;;;;;;5.53;2.37;;;;;;;;;;5090657;28;20107;-61
2022/11/12 06:40:49;;;;;;;1.73;1.50;;;;;;;;;;5076292;28;20024;-61
2022/11/12 06:43:15;;;;;;;2.63;1.87;;;;;;;;;;5081878;28;20086;-61
2022/11/12 06:45:42;;;;;;;2.20;1.60;;;;;;;;;;5084984;28;20023;-61
2022/11/12 06:48:09;;;;;;;1.97;1.63;;;;;;;;;;5092078;28;20028;-61
2022/11/12 06:50:35;;;;;;;1.30;1.10;;;;;;;;;;5086119;28;20020;-61
2022/11/12 06:53:02;;;;;;;3.27;2.03;;;;;;;;;;5082704;28;20036;-61
2022/11/12 06:55:29;;;;;;;2.43;1.77;;;;;;;;;;5082715;28;20427;-61
2022/11/12 06:57:55;;;;;;;5.97;2.60;;;;;;;;;;5092311;28;20020;-61
2022/11/12 07:00:22;;;;;;;1.80;1.37;;;;;;;;;;5091902;28;20071;-61
2022/11/12 07:02:48;;;;;;;1.67;1.30;;;;;;;;;;5057993;28;20052;-60
2022/11/12 07:05:15;;;;;;;2.27;1.77;;;;;;;;;;5085910;28;20028;-60
2022/11/12 07:07:42;;;;;;;2.87;2.20;;;;;;;;;;5095270;28;20038;-61
2022/11/12 07:10:09;;;;;;;3.33;2.30;;;;;;;;;;5086478;28;20024;-61
2022/11/12 07:12:35;;;;;;;4.20;2.77;;;;;;;;;;5084310;28;20036;-62
2022/11/12 07:15:02;;;;;;;5.57;1.87;;;;;;;;;;5073947;28;20028;-61
2022/11/12 07:17:29;;;;;;;2.10;1.73;;;;;;;;;;5102535;28;20104;-61
2022/11/12 07:19:55;;;;;;;1.93;1.73;;;;;;;;;;5078623;28;20020;-61
2022/11/12 07:22:22;;;;;;;2.53;1.80;;;;;;;;;;5088308;28;20023;-61
2022/11/12 07:24:49;;;;;;;2.50;1.93;;;;;;;;;;5071635;28;20066;-61
2022/11/12 07:27:15;;;;;;;4.37;1.97;;;;;;;;;;5105992;28;20020;-61
2022/11/12 07:29:42;;;;;;;2.03;1.60;;;;;;;;;;5106822;28;20030;-61
2022/11/12 07:32:09;;;;;;;2.97;1.53;;;;;;;;;;5106835;28;20062;-61
2022/11/12 07:34:35;;;;;;;4.90;2.27;;;;;;;;;;5106062;28;20043;-61
2022/11/12 07:37:02;;;;;;;3.00;2.17;;;;;;;;;;5093831;28;20396;-61
2022/11/12 07:39:28;;;;;;;2.13;1.30;;;;;;;;;;5095599;28;20379;-61
2022/11/12 07:41:55;;;;;;;2.30;1.40;;;;;;;;;;5075317;28;20052;-61
2022/11/12 07:44:22;;;;;;;2.17;1.63;;;;;;;;;;5074899;28;20027;-61
2022/11/12 07:46:48;;;;;;;1.83;1.40;;;;;;;;;;5075209;28;20024;-61
2022/11/12 07:49:15;;;;;;;4.17;2.40;;;;;;;;;;5074398;28;20020;-62
2022/11/12 07:51:42;;;;;;;10.03;1.83;;;;;;;;;;5105162;28;20035;-61
2022/11/12 07:54:08;;;;;;;2.80;2.03;;;;;;;;;;5092074;28;20042;-61
2022/11/12 07:56:35;;;;;;;2.47;1.90;;;;;;;;;;5090038;28;20054;-61
2022/11/12 07:59:02;;;;;;;6.03;1.63;;;;;;;;;;5089708;28;20047;-62
2022/11/12 08:01:33;;;;;;;1.20;0.93;;;;;;;;;;5095352;28;20042;-61
2022/11/12 08:04:00;;;;;;;1.67;1.40;;;;;;;;;;5096463;28;20374;-61
2022/11/12 08:06:27;;;;;;;2.40;1.53;;;;;;;;;;5095464;28;20135;-60
2022/11/12 08:08:55;;;;;;;1.43;1.07;;;;;;;;;;5095258;28;20048;-60
2022/11/12 08:11:22;;;;;;;3.57;2.23;;;;;;;;;;5094671;28;20020;-61
2022/11/12 08:13:48;;;;;;;2.17;1.50;;;;;;;;;;5103710;28;20059;-61
2022/11/12 08:16:15;;;;;;;3.20;2.37;;;;;;;;;;5110384;28;20027;-60
2022/11/12 08:18:43;;;;;;;6.90;2.23;;;;;;;;;;5109957;28;20363;-60
2022/11/12 08:21:11;;;;;;;1.87;1.50;;;;;;;;;;5110075;28;20378;-60
2022/11/12 08:23:37;;;;;;;1.77;1.20;;;;;;;;;;5102082;28;20490;-61
2022/11/12 08:26:06;;;;;;;2.07;1.47;;;;;;;;;;5095178;28;21145;-60
2022/11/12 08:28:33;;;;;;;2.20;1.37;;;;;;;;;;5094883;28;20027;-60
2022/11/12 08:31:07;;;;;;;2.40;1.87;;;;;;;;;;5094797;28;20028;-60
2022/11/12 08:33:34;;;;;;;1.13;0.93;;;;;;;;;;5106428;28;20489;-60
2022/11/12 08:36:05;;;;;;;2.57;1.60;;;;;;;;;;5109057;28;20028;-62
2022/11/12 08:38:32;;;;;;;2.40;1.50;;;;;;;;;;5109864;28;20061;-61
2022/11/12 08:41:02;;;;;;;2.97;2.03;;;;;;;;;;5109589;28;20026;-61
2022/11/12 08:43:29;;;;;;;1.77;1.30;;;;;;;;;;5097792;28;20059;-60
2022/11/12 08:45:57;;;;;;;2.97;1.50;;;;;;;;;;5094574;28;20095;-60
2022/11/12 08:48:24;;;;;;;2.00;1.70;;;;;;;;;;5094256;28;20020;-60
2022/11/12 08:50:51;;;;;;;2.67;2.07;;;;;;;;;;5094576;28;20024;-60
2022/11/12 08:53:17;;;;;;;3.67;1.87;;;;;;;;;;5102981;28;20085;-62
2022/11/12 08:55:44;;;;;;;4.03;2.30;;;;;;;;;;5114841;28;20405;-60
2022/11/12 08:58:11;;;;;;;4.20;2.20;;;;;;;;;;5109399;28;20024;-61
2022/11/12 09:00:39;;;;;;;8.50;2.97;;;;;;;;;;5108983;28;20028;-60
2022/11/12 09:03:06;;;;;;;5.83;2.67;;;;;;;;;;5101677;28;20060;-60
2022/11/12 09:05:34;;;;;;;1.90;1.57;;;;;;;;;;5088703;28;20028;-60
2022/11/12 09:08:03;;;;;;;1.40;0.97;;;;;;;;;;5093505;28;20103;-61
2022/11/12 09:10:29;;;;;;;2.97;2.07;;;;;;;;;;5094017;28;20024;-60
2022/11/12 09:12:56;;;;;;;1.80;1.50;;;;;;;;;;5099371;28;20501;-61
2022/11/12 09:15:24;;;;;;;2.20;1.33;;;;;;;;;;5113929;28;20486;-60
2022/11/12 09:17:57;;;;;;;4.07;2.33;;;;;;;;;;5114439;28;20020;-60
2022/11/12 09:20:24;;;;;;;3.83;1.70;;;;;;;;;;5108870;28;20032;-61
2022/11/12 09:22:52;;;;;;;2.17;1.70;;;;;;;;;;5103893;28;20031;-60
2022/11/12 09:25:19;;;;;;;1.40;1.20;;;;;;;;;;5088324;28;20069;-61
2022/11/12 09:27:46;;;;;;;3.83;2.53;;;;;;;;;;5088104;28;20336;-61
2022/11/12 09:30:12;;;;;;;3.33;1.83;;;;;;;;;;5092747;28;20060;-60
2022/11/12 09:32:39;;;;;;;2.33;1.80;;;;;;;;;;5096075;28;20125;-61
2022/11/12 09:35:06;;;;;;;1.77;1.40;;;;;;;;;;5099298;28;20442;-60
2022/11/12 09:37:33;;;;;;;2.07;1.57;;;;;;;;;;5093558;28;20024;-60
2022/11/12 09:39:59;;;;;;;1.90;1.40;;;;;;;;;;5093651;28;20020;-60
2022/11/12 09:42:26;;;;;;;1.40;1.00;;;;;;;;;;5088766;28;20063;-61
2022/11/12 09:44:57;;;;;;;5.03;2.43;;;;;;;;;;5099207;28;20027;-61
2022/11/12 09:47:29;;;;;;;1.60;1.33;;;;;;;;;;5107984;28;20047;-60
2022/11/12 09:50:19;;;;;;;2.20;1.37;;;;;;;;;;5108299;28;20439;-60
2022/11/12 09:52:48;;;;;;;2.23;1.43;;;;;;;;;;5107943;28;20476;-60
2022/11/12 09:55:18;;;;;;;2.50;1.53;;;;;;;;;;5098846;28;20039;-60
2022/11/12 09:57:45;;;;;;;6.07;2.07;;;;;;;;;;5094014;28;20028;-61
2022/11/12 10:00:19;;;;;;;1.80;1.13;;;;;;;;;;5092777;28;20035;-60
2022/11/12 10:02:45;;;;;;;2.53;1.80;;;;;;;;;;5092601;28;20024;-60
2022/11/12 10:05:33;;;;;;;3.63;2.57;;;;;;;;;;5100854;28;20027;-61
2022/11/12 10:08:18;;;;;;;1.93;1.50;;;;;;;;;;5107935;28;20027;-60
2022/11/12 10:10:49;;;;;;;3.47;2.85;;;;;;;;;;5107956;28;20016;-60
2022/11/12 10:13:16;;;;;;;4.23;1.83;;;;;;;;;;5108938;28;20015;-61
2022/11/12 10:19:00;;;;;;;3.83;2.28;;;;;;;;;;5092701;28;20847;-61
2022/11/12 10:21:35;;;;;;;2.00;1.70;;;;;;;;;;5042050;28;20036;-60
2022/11/12 10:24:03;;;;;;;5.30;2.73;;;;;;;;;;5095791;28;20028;-60
2022/11/12 10:26:33;;;;;;;3.30;2.03;;;;;;;;;;5109297;28;20047;-61
2022/11/12 10:29:03;;;;;;;2.07;1.73;;;;;;;;;;5107773;28;20034;-61
2022/11/12 10:31:29;;;;;;;2.80;2.17;;;;;;;;;;5107476;28;20027;-60
2022/11/12 10:34:19;;;;;;;3.03;1.87;;;;;;;;;;5104974;28;20047;-61
2022/11/12 10:36:51;;;;;;;1.77;1.40;;;;;;;;;;5080579;28;20035;-60
2022/11/12 10:39:31;;;;;;;2.00;1.33;;;;;;;;;;5092575;28;20051;-61
2022/11/12 10:42:06;;;;;;;2.63;1.47;;;;;;;;;;5092444;28;20020;-61
2022/11/12 10:44:32;;;;;;;2.55;1.83;;;;;;;;;;5099277;28;20347;-60
2022/11/12 10:47:17;;;;;;;2.30;1.60;;;;;;;;;;5112741;28;20478;-60
2022/11/12 10:49:44;;;;;;;3.17;2.58;;;;;;;;;;5107356;28;20412;-60
2022/11/12 10:52:21;;;;;;;4.27;2.77;;;;;;;;;;5107340;28;20050;-60
2022/11/12 10:54:47;;;;;;;3.20;2.30;;;;;;;;;;5098100;28;20394;-61
2022/11/12 10:57:22;;;;;;;4.10;2.50;;;;;;;;;;5086895;28;20433;-61
2022/11/12 11:00:06;;;;;;;2.28;2.00;;;;;;;;;;5092285;28;20093;-60
2022/11/12 11:02:33;;;;;;;3.57;2.27;;;;;;;;;;5092185;28;20016;-60
2022/11/12 11:04:59;;;;;;;2.47;1.97;;;;;;;;;;5093139;28;20081;-60
2022/11/12 11:07:26;;;;;;;3.10;2.43;;;;;;;;;;5092339;28;20028;-60
2022/11/12 11:09:54;;;;;;;3.47;2.47;;;;;;;;;;5091916;28;20028;-60
2022/11/12 11:12:25;;;;;;;3.37;2.13;;;;;;;;;;5091036;28;20024;-60
2022/11/12 11:15:07;;;;;;;2.87;2.03;;;;;;;;;;5099430;28;20092;-60
2022/11/12 11:17:34;;;;;;;1.67;1.50;;;;;;;;;;5111321;28;20379;-60
2022/11/12 11:20:01;;;;;;;2.00;1.70;;;;;;;;;;5112288;28;20399;-61
2022/11/12 11:22:44;;;;;;;1.40;1.13;;;;;;;;;;5116730;28;20538;-60
2022/11/12 11:25:21;;;;;;;2.47;1.73;;;;;;;;;;5105175;28;20046;-60
2022/11/12 11:27:59;;;;;;;3.17;1.47;;;;;;;;;;5103504;28;20027;-60
2022/11/12 11:30:26;;;;;;;3.23;2.33;;;;;;;;;;5116592;28;20072;-60
2022/11/12 11:32:53;;;;;;;3.97;1.87;;;;;;;;;;5113595;28;20034;-60
2022/11/12 11:35:28;;;;;;;3.40;2.03;;;;;;;;;;5098375;28;20040;-60
2022/11/12 11:38:07;;;;;;;2.17;1.77;;;;;;;;;;5090260;28;20097;-60
2022/11/12 11:40:39;;;;;;;3.73;2.70;;;;;;;;;;5090534;28;20022;-60
2022/11/12 11:43:25;;;;;;;2.80;2.00;;;;;;;;;;5093430;28;20108;-60
2022/11/12 11:45:51;;;;;;;3.00;1.98;;;;;;;;;;5112015;28;20107;-60
2022/11/12 11:48:18;;;;;;;7.30;2.27;;;;;;;;;;5115754;28;20475;-60
2022/11/12 11:50:58;;;;;;;2.30;1.47;;;;;;;;;;5116251;28;20024;-60
2022/11/12 11:53:33;;;;;;;2.03;1.77;;;;;;;;;;5116098;28;20059;-60
2022/11/12 11:56:03;;;;;;;3.20;2.50;;;;;;;;;;5093249;28;20020;-60
2022/11/12 11:58:32;;;;;;;2.97;1.83;;;;;;;;;;5089698;28;20107;-60
2022/11/12 12:00:59;;;;;;;3.60;3.03;;;;;;;;;;5089855;28;20146;-60
2022/11/12 12:03:31;;;;;;;1.97;1.50;;;;;;;;;;5110304;28;20110;-60
2022/11/12 12:06:01;;;;;;;10.23;3.23;;;;;;;;;;5114815;28;20030;-60
2022/11/12 12:08:27;;;;;;;3.43;2.23;;;;;;;;;;5115729;28;20047;-60
2022/11/12 12:11:12;;;;;;;3.40;2.77;;;;;;;;;;5115737;28;20088;-60
2022/11/12 12:13:58;;;;;;;4.17;2.63;;;;;;;;;;5074977;28;20040;-61
2022/11/12 12:16:34;;;;;;;14.03;3.33;;;;;;;;;;5073120;28;20033;-60
2022/11/12 12:19:20;;;;;;;1.70;1.60;;;;;;;;;;5068982;28;20613;-60
2022/11/12 12:21:48;;;;;;;24.90;3.27;;;;;;;;;;5081775;28;20035;-60
2022/11/12 12:24:15;;;;;;;6.93;2.73;;;;;;;;;;5110109;28;20019;-60
2022/11/12 12:26:45;;;;;;;3.77;3.17;;;;;;;;;;5110968;28;20596;-60
2022/11/12 12:29:15;;;;;;;4.60;3.47;;;;;;;;;;5115441;28;20040;-60
2022/11/12 12:31:46;;;;;;;1.63;1.33;;;;;;;;;;5109278;28;20356;-60
2022/11/12 12:34:32;;;;;;;2.27;1.93;;;;;;;;;;5094817;28;20025;-60
2022/11/12 12:37:07;;;;;;;3.00;2.43;;;;;;;;;;5094600;28;20020;-62
2022/11/12 12:39:42;;;;;;;4.35;3.10;;;;;;;;;;5091688;28;20035;-60
2022/11/12 12:42:09;;;;;;;2.67;2.00;;;;;;;;;;5098041;28;20039;-60
2022/11/12 12:44:58;;;;;;;3.90;2.93;;;;;;;;;;5109518;28;20437;-60
2022/11/12 12:47:26;;;;;;;2.77;2.47;;;;;;;;;;5109590;28;20475;-61
2022/11/12 12:49:53;;;;;;;4.87;3.40;;;;;;;;;;5112187;28;20024;-60
2022/11/12 12:52:19;;;;;;;2.20;1.87;;;;;;;;;;5104496;28;20024;-60
2022/11/12 12:54:52;;;;;;;4.40;3.17;;;;;;;;;;5094515;28;20028;-60
2022/11/12 12:57:37;;;;;;;3.30;2.47;;;;;;;;;;5094452;28;20020;-60
2022/11/12 13:00:22;;;;;;;4.75;3.40;;;;;;;;;;5094027;28;20099;-60
2022/11/12 13:02:49;;;;;;;5.97;3.60;;;;;;;;;;5084794;28;20436;-60
2022/11/12 13:05:27;;;;;;;5.00;3.57;;;;;;;;;;5090901;28;20394;-60
2022/11/12 13:07:56;;;;;;;2.47;1.70;;;;;;;;;;5109326;28;20020;-60
2022/11/12 13:10:41;;;;;;;2.80;2.30;;;;;;;;;;5108519;28;20020;-60
2022/11/12 13:13:17;;;;;;;7.95;2.67;;;;;;;;;;5097868;28;20409;-60
2022/11/12 13:15:45;;;;;;;4.93;3.10;;;;;;;;;;5094142;28;20022;-60
2022/11/12 13:18:12;;;;;;;4.47;3.53;;;;;;;;;;5093967;28;20024;-60
2022/11/12 13:34:30;;;;;;;6.88;4.45;;;;;;;;;;5031657;27;3051970;-61
2022/11/12 13:37:01;;;;;;;5.23;4.07;;;;;;;;;;5088313;28;20032;-61
2022/11/12 13:39:28;;;;;;;6.00;4.03;;;;;;;;;;5083726;28;20024;-61
2022/11/12 13:44:43;;;;;;;5.90;3.40;;;;;;;;;;5084432;28;20035;-61
2022/11/12 13:47:15;;;;;;;9.33;3.87;;;;;;;;;;5106880;28;20024;-61
2022/11/12 13:49:43;;;;;;;3.60;2.97;;;;;;;;;;5109354;28;20539;-61
2022/11/12 13:52:12;;;;;;;5.03;3.43;;;;;;;;;;5109883;28;20081;-61
2022/11/12 13:54:39;;;;;;;16.37;3.83;;;;;;;;;;5109791;28;20102;-61
2022/11/12 13:57:24;;;;;;;6.57;3.93;;;;;;;;;;5091422;28;20028;-61
2022/11/12 14:00:19;;;;;;;4.75;3.08;;;;;;;;;;5083614;28;20020;-62
2022/11/12 14:02:51;;;;;;;5.72;3.58;;;;;;;;;;5083555;28;20044;-61
2022/11/12 14:05:32;;;;;;;4.97;3.57;;;;;;;;;;5084640;28;20025;-62
2022/11/12 14:08:14;;;;;;;4.43;3.53;;;;;;;;;;5106564;28;20194;-61
2022/11/12 14:10:44;;;;;;;3.03;2.70;;;;;;;;;;5109424;28;20103;-61
2022/11/12 14:13:20;;;;;;;6.97;4.97;;;;;;;;;;5109404;28;20024;-61
2022/11/12 14:15:49;;;;;;;8.43;4.87;;;;;;;;;;5103665;28;20020;-62
2022/11/12 14:18:35;;;;;;;3.37;2.73;;;;;;;;;;5088999;28;20028;-62
2022/11/12 14:21:01;;;;;;;;;;;;;;;;;;5084739;28;20489;-62
2022/11/12 14:23:28;;;;;;;6.07;4.30;;;;;;;;;;5097880;28;19994;-62
2022/11/12 14:25:55;;;;;;;5.37;3.93;;;;;;;;;;5085017;28;20398;-62
2022/11/12 14:28:32;;;;;;;6.93;4.10;;;;;;;;;;5089288;28;20095;-62
2022/11/12 14:31:00;;;;;;;5.53;2.93;;;;;;;;;;5107445;28;20027;-62
2022/11/12 14:33:28;;;;;;;5.70;4.43;;;;;;;;;;5106229;28;20482;-62
2022/11/12 14:35:59;;;;;;;6.60;4.27;;;;;;;;;;5095315;28;20497;-62
2022/11/12 14:38:31;;;;;;;9.50;4.87;;;;;;;;;;5088686;28;20028;-61
2022/11/12 14:41:01;;;;;;;6.83;4.93;;;;;;;;;;5074637;28;20031;-63
2022/11/12 14:43:33;;;;;;;7.53;5.43;;;;;;;;;;5077131;28;20040;-62
2022/11/12 14:46:01;;;;;;;7.17;4.70;;;;;;;;;;5089655;28;20383;-62
2022/11/12 14:48:28;;;;;;;5.73;4.40;;;;;;;;;;5089310;28;20076;-61
2022/11/12 14:51:01;;;;;;;9.37;5.23;;;;;;;;;;5089534;28;20035;-61
2022/11/12 14:53:32;;;;;;;10.83;5.47;;;;;;;;;;5086687;28;20028;-62
2022/11/12 14:56:00;;;;;;;5.33;3.57;;;;;;;;;;5074607;28;20029;-62
2022/11/12 14:58:29;;;;;;;5.70;3.43;;;;;;;;;;5074995;28;20027;-63
2022/11/12 15:00:57;;;;;;;5.20;3.70;;;;;;;;;;5094122;28;20032;-63
2022/11/12 15:03:25;;;;;;;6.60;3.30;;;;;;;;;;5080889;28;20059;-63
2022/11/12 15:06:00;;;;;;;9.63;4.50;;;;;;;;;;5084531;28;20036;-63
2022/11/12 15:08:44;;;;;;;24.60;3.43;;;;;;;;;;5080625;28;20028;-63
2022/11/12 15:11:15;;;;;;;6.30;4.60;;;;;;;;;;5078882;28;20467;-63
2022/11/12 15:13:42;;;;;;;5.40;3.70;;;;;;;;;;5071187;28;20028;-63
2022/11/12 15:16:09;;;;;;;6.57;3.77;;;;;;;;;;5081970;28;20062;-63
2022/11/12 15:18:38;;;;;;;10.23;4.30;;;;;;;;;;5073944;28;20036;-63
2022/11/12 15:21:14;;;;;;;5.33;3.73;;;;;;;;;;5089879;28;20600;-64
2022/11/12 15:23:50;;;;;;;9.33;4.20;;;;;;;;;;5085134;28;20111;-64
2022/11/12 15:26:25;;;;;;;5.97;3.60;;;;;;;;;;5082929;28;20028;-63
2022/11/12 15:29:09;;;;;;;5.18;3.45;;;;;;;;;;5077614;28;20076;-64
2022/11/12 15:31:45;;;;;;;5.20;3.17;;;;;;;;;;5082537;28;20021;-63
2022/11/12 15:34:24;;;;;;;5.07;3.40;;;;;;;;;;5077758;28;20102;-64
2022/11/12 15:36:51;;;;;;;6.30;3.90;;;;;;;;;;5076894;28;20103;-64